sensor_id;sensor_type;location;lat;lon;timestamp;pressure;altitude;pressure_sealevel;temperature;humidity
6028;BME280;3042;43.194;27.646;2022-09-11T00:00:48;101160.34;;;28.96;100.00
6028;BME280;3042;43.194;27.646;2022-09-11T00:03:16;101153.47;;;28.88;100.00
6028;BME280;3042;43.194;27.646;2022-09-11T00:05:44;101166.69;;;28.91;100.00
6028;BME280;3042;43.194;27.646;2022-09-11T00:08:15;101158.28;;;29.09;100.00
6028;BME280;3042;43.194;27.646;2022-09-11T00:10:44;101118.81;;;28.55;100.00
6028;BME280;3042;43.194;27.646;2022-09-11T00:13:14;101172.09;;;28.88;100.00
6028;BME280;3042;43.194;27.646;2022-09-11T00:15:44;101185.41;;;28.86;100.00
6028;BME280;3042;43.194;27.646;2022-09-11T00:18:14;101089.22;;;28.30;100.00
6028;BME280;3042;43.194;27.646;2022-09-11T00:20:46;101183.97;;;29.10;100.00
6028;BME280;3042;43.194;27.646;2022-09-11T00:23:17;101176.94;;;29.06;100.00
6028;BME280;3042;43.194;27.646;2022-09-11T00:25:45;101176.94;;;29.06;100.00
6028;BME280;3042;43.194;27.646;2022-09-11T00:28:13;101178.78;;;29.04;100.00
6028;BME280;3042;43.194;27.646;2022-09-11T00:30:41;101166.44;;;29.00;100.00
6028;BME280;3042;43.194;27.646;2022-09-11T00:33:10;101118.63;;;28.61;100.00
6028;BME280;3042;43.194;27.646;2022-09-11T00:35:37;101123.16;;;28.59;100.00
6028;BME280;3042;43.194;27.646;2022-09-11T00:38:05;101172.09;;;28.88;100.00
6028;BME280;3042;43.194;27.646;2022-09-11T00:40:43;101170.41;;;29.19;100.00
6028;BME280;3042;43.194;27.646;2022-09-11T00:43:12;101165.50;;;29.02;100.00
6028;BME280;3042;43.194;27.646;2022-09-11T00:45:41;101122.13;;;28.63;100.00
6028;BME280;3042;43.194;27.646;2022-09-11T00:48:10;101169.88;;;29.05;100.00
6028;BME280;3042;43.194;27.646;2022-09-11T00:50:42;101164.28;;;29.17;100.00
6028;BME280;3042;43.194;27.646;2022-09-11T00:53:13;101166.00;;;29.18;100.00
6028;BME280;3042;43.194;27.646;2022-09-11T00:55:52;101168.66;;;29.20;100.00
6028;BME280;3042;43.194;27.646;2022-09-11T00:58:24;101148.91;;;28.93;100.00
6028;BME280;3042;43.194;27.646;2022-09-11T01:00:55;101172.50;;;29.08;100.00
6028;BME280;3042;43.194;27.646;2022-09-11T01:03:23;101169.94;;;29.02;100.00
6028;BME280;3042;43.194;27.646;2022-09-11T01:05:52;101160.16;;;29.04;100.00
6028;BME280;3042;43.194;27.646;2022-09-11T01:08:20;101165.94;;;28.86;100.00
6028;BME280;3042;43.194;27.646;2022-09-11T01:11:01;101172.50;;;29.08;100.00
6028;BME280;3042;43.194;27.646;2022-09-11T01:13:34;101151.88;;;28.80;100.00
6028;BME280;3042;43.194;27.646;2022-09-11T01:16:08;101159.44;;;28.96;100.00
6028;BME280;3042;43.194;27.646;2022-09-11T01:18:41;101168.81;;;28.76;100.00
6028;BME280;3042;43.194;27.646;2022-09-11T01:21:26;101166.59;;;28.94;100.00
6028;BME280;3042;43.194;27.646;2022-09-11T01:24:15;101163.69;;;29.03;100.00
6028;BME280;3042;43.194;27.646;2022-09-11T01:27:03;100985.34;;;28.03;100.00
6028;BME280;3042;43.194;27.646;2022-09-11T01:29:39;101149.53;;;29.02;100.00
6028;BME280;3042;43.194;27.646;2022-09-11T01:32:14;101145.03;;;29.04;100.00
6028;BME280;3042;43.194;27.646;2022-09-11T01:34:48;101141.38;;;29.10;100.00
6028;BME280;3042;43.194;27.646;2022-09-11T01:37:23;101145.06;;;29.03;100.00
6028;BME280;3042;43.194;27.646;2022-09-11T01:40:00;101156.13;;;28.88;100.00
6028;BME280;3042;43.194;27.646;2022-09-11T01:42:32;101150.91;;;28.83;100.00
6028;BME280;3042;43.194;27.646;2022-09-11T01:45:04;101130.19;;;28.61;100.00
6028;BME280;3042;43.194;27.646;2022-09-11T01:47:33;101053.28;;;28.15;100.00
6028;BME280;3042;43.194;27.646;2022-09-11T01:50:03;101143.88;;;28.80;100.00
6028;BME280;3042;43.194;27.646;2022-09-11T01:52:35;101135.19;;;29.10;100.00
6028;BME280;3042;43.194;27.646;2022-09-11T01:55:10;101134.31;;;29.09;100.00
6028;BME280;3042;43.194;27.646;2022-09-11T01:57:42;101054.28;;;28.47;100.00
6028;BME280;3042;43.194;27.646;2022-09-11T02:00:13;101148.75;;;28.99;100.00
6028;BME280;3042;43.194;27.646;2022-09-11T02:02:43;101148.75;;;28.99;100.00
6028;BME280;3042;43.194;27.646;2022-09-11T02:05:14;101143.66;;;28.90;100.00
6028;BME280;3042;43.194;27.646;2022-09-11T02:07:47;101141.84;;;28.92;100.00
6028;BME280;3042;43.194;27.646;2022-09-11T02:10:17;101136.66;;;28.86;100.00
6028;BME280;3042;43.194;27.646;2022-09-11T02:12:50;101128.06;;;28.74;100.00
6028;BME280;3042;43.194;27.646;2022-09-11T02:15:24;101132.72;;;28.66;100.00
6028;BME280;3042;43.194;27.646;2022-09-11T02:18:00;101121.28;;;28.61;100.00
6028;BME280;3042;43.194;27.646;2022-09-11T02:20:28;101127.06;;;28.42;100.00
6028;BME280;3042;43.194;27.646;2022-09-11T02:22:56;101113.91;;;28.36;100.00
6028;BME280;3042;43.194;27.646;2022-09-11T02:25:24;101121.69;;;28.44;100.00
6028;BME280;3042;43.194;27.646;2022-09-11T02:27:51;101118.06;;;28.48;100.00
6028;BME280;3042;43.194;27.646;2022-09-11T02:30:20;101119.34;;;28.69;100.00
6028;BME280;3042;43.194;27.646;2022-09-11T02:32:48;101012.25;;;27.88;100.00
6028;BME280;3042;43.194;27.646;2022-09-11T02:35:15;101111.81;;;28.51;100.00
6028;BME280;3042;43.194;27.646;2022-09-11T02:37:49;101106.00;;;28.71;100.00
6028;BME280;3042;43.194;27.646;2022-09-11T02:40:41;101105.84;;;28.77;100.00
6028;BME280;3042;43.194;27.646;2022-09-11T02:46:18;101124.81;;;28.63;100.00
6028;BME280;3042;43.194;27.646;2022-09-11T02:48:55;101138.94;;;28.65;100.00
6028;BME280;3042;43.194;27.646;2022-09-11T02:51:32;101136.44;;;28.59;100.00
6028;BME280;3042;43.194;27.646;2022-09-11T02:54:08;101124.97;;;28.57;100.00
6028;BME280;3042;43.194;27.646;2022-09-11T02:56:43;101046.34;;;28.08;100.00
6028;BME280;3042;43.194;27.646;2022-09-11T02:59:16;101133.69;;;28.62;100.00
6028;BME280;3042;43.194;27.646;2022-09-11T03:01:48;101145.50;;;28.50;100.00
6028;BME280;3042;43.194;27.646;2022-09-11T03:04:18;101126.75;;;28.16;100.00
6028;BME280;3042;43.194;27.646;2022-09-11T03:06:47;101083.13;;;27.87;100.00
6028;BME280;3042;43.194;27.646;2022-09-11T03:09:14;101147.13;;;28.17;100.00
6028;BME280;3042;43.194;27.646;2022-09-11T03:11:42;101156.94;;;28.13;100.00
6028;BME280;3042;43.194;27.646;2022-09-11T03:14:10;101154.38;;;28.09;100.00
6028;BME280;3042;43.194;27.646;2022-09-11T03:16:38;101152.38;;;28.20;100.00
6028;BME280;3042;43.194;27.646;2022-09-11T03:19:06;101155.59;;;28.34;100.00
6028;BME280;3042;43.194;27.646;2022-09-11T03:21:34;101105.41;;;27.78;100.00
6028;BME280;3042;43.194;27.646;2022-09-11T03:24:02;101153.44;;;28.11;100.00
6028;BME280;3042;43.194;27.646;2022-09-11T03:26:29;101088.78;;;27.70;100.00
6028;BME280;3042;43.194;27.646;2022-09-11T03:28:58;101150.84;;;28.08;100.00
6028;BME280;3042;43.194;27.646;2022-09-11T03:31:26;101134.63;;;27.78;100.00
6028;BME280;3042;43.194;27.646;2022-09-11T03:33:53;101149.25;;;28.01;100.00
6028;BME280;3042;43.194;27.646;2022-09-11T03:36:22;101147.16;;;28.15;100.00
6028;BME280;3042;43.194;27.646;2022-09-11T03:38:50;101163.78;;;27.83;100.00
6028;BME280;3042;43.194;27.646;2022-09-11T03:41:20;101157.59;;;27.81;100.00
6028;BME280;3042;43.194;27.646;2022-09-11T03:43:47;101159.59;;;27.70;100.00
6028;BME280;3042;43.194;27.646;2022-09-11T03:46:14;101158.63;;;27.74;100.00
6028;BME280;3042;43.194;27.646;2022-09-11T03:48:42;101165.63;;;27.78;100.00
6028;BME280;3042;43.194;27.646;2022-09-11T03:51:10;101164.66;;;27.82;100.00
6028;BME280;3042;43.194;27.646;2022-09-11T03:53:41;101158.28;;;27.92;100.00
6028;BME280;3042;43.194;27.646;2022-09-11T03:56:09;101168.34;;;27.75;100.00
6028;BME280;3042;43.194;27.646;2022-09-11T03:58:36;101162.06;;;27.79;100.00
6028;BME280;3042;43.194;27.646;2022-09-11T04:01:07;101161.38;;;28.13;100.00
6028;BME280;3042;43.194;27.646;2022-09-11T04:03:35;101168.25;;;27.79;100.00
6028;BME280;3042;43.194;27.646;2022-09-11T04:06:02;101099.13;;;27.39;100.00
6028;BME280;3042;43.194;27.646;2022-09-11T04:08:30;101168.28;;;27.78;100.00
6028;BME280;3042;43.194;27.646;2022-09-11T04:11:02;101164.31;;;28.01;100.00
6028;BME280;3042;43.194;27.646;2022-09-11T04:13:31;101169.63;;;28.01;100.00
6028;BME280;3042;43.194;27.646;2022-09-11T04:16:00;101164.25;;;28.04;100.00
6028;BME280;3042;43.194;27.646;2022-09-11T04:18:28;101168.78;;;27.98;100.00
6028;BME280;3042;43.194;27.646;2022-09-11T04:20:56;101174.28;;;27.89;100.00
6028;BME280;3042;43.194;27.646;2022-09-11T04:23:23;101178.94;;;27.76;100.00
6028;BME280;3042;43.194;27.646;2022-09-11T04:25:50;101176.16;;;27.84;100.00
6028;BME280;3042;43.194;27.646;2022-09-11T04:28:19;101172.41;;;27.94;100.00
6028;BME280;3042;43.194;27.646;2022-09-11T04:30:47;101181.47;;;27.84;100.00
6028;BME280;3042;43.194;27.646;2022-09-11T04:33:14;101174.38;;;27.86;100.00
6028;BME280;3042;43.194;27.646;2022-09-11T04:35:41;101184.25;;;27.76;100.00
6028;BME280;3042;43.194;27.646;2022-09-11T04:38:08;101193.31;;;27.65;100.00
6028;BME280;3042;43.194;27.646;2022-09-11T04:40:36;101186.63;;;27.44;100.00
6028;BME280;3042;43.194;27.646;2022-09-11T04:43:03;101197.69;;;27.69;100.00
6028;BME280;3042;43.194;27.646;2022-09-11T04:45:32;101195.41;;;27.95;100.00
6028;BME280;3042;43.194;27.646;2022-09-11T04:48:01;101202.66;;;27.89;100.00
6028;BME280;3042;43.194;27.646;2022-09-11T04:50:28;101203.63;;;27.83;100.00
6028;BME280;3042;43.194;27.646;2022-09-11T04:52:56;101161.78;;;27.94;100.00
6028;BME280;3042;43.194;27.646;2022-09-11T04:55:24;101192.81;;;28.34;100.00
6028;BME280;3042;43.194;27.646;2022-09-11T04:57:51;101198.19;;;28.31;100.00
6028;BME280;3042;43.194;27.646;2022-09-11T05:00:19;101189.91;;;28.47;100.00
6028;BME280;3042;43.194;27.646;2022-09-11T05:02:48;101195.56;;;28.70;100.00
6028;BME280;3042;43.194;27.646;2022-09-11T05:05:15;101195.84;;;28.58;100.00
6028;BME280;3042;43.194;27.646;2022-09-11T05:07:43;101202.19;;;28.52;100.00
6028;BME280;3042;43.194;27.646;2022-09-11T05:10:10;101198.59;;;28.55;100.00
6028;BME280;3042;43.194;27.646;2022-09-11T05:12:38;101188.28;;;28.78;100.00
6028;BME280;3042;43.194;27.646;2022-09-11T05:15:06;101199.94;;;29.10;100.00
6028;BME280;3042;43.194;27.646;2022-09-11T05:17:34;101198.81;;;29.19;100.00
6028;BME280;3042;43.194;27.646;2022-09-11T05:20:04;101185.78;;;29.42;100.00
6028;BME280;3042;43.194;27.646;2022-09-11T05:22:31;101201.75;;;29.42;100.00
6028;BME280;3042;43.194;27.646;2022-09-11T05:24:58;101001.06;;;28.50;100.00
6028;BME280;3042;43.194;27.646;2022-09-11T05:27:26;101192.13;;;29.71;100.00
6028;BME280;3042;43.194;27.646;2022-09-11T05:29:53;101190.34;;;29.72;100.00
6028;BME280;3042;43.194;27.646;2022-09-11T05:32:21;101192.28;;;29.96;100.00
6028;BME280;3042;43.194;27.646;2022-09-11T05:34:48;101100.91;;;29.61;100.00
6028;BME280;3042;43.194;27.646;2022-09-11T05:37:17;101133.25;;;30.10;100.00
6028;BME280;3042;43.194;27.646;2022-09-11T05:39:44;101180.81;;;30.24;100.00
6028;BME280;3042;43.194;27.646;2022-09-11T05:42:12;101179.56;;;30.37;100.00
6028;BME280;3042;43.194;27.646;2022-09-11T05:44:39;101182.59;;;30.53;100.00
6028;BME280;3042;43.194;27.646;2022-09-11T05:47:06;101050.03;;;29.41;100.00
6028;BME280;3042;43.194;27.646;2022-09-11T05:49:34;101180.81;;;30.54;100.00
6028;BME280;3042;43.194;27.646;2022-09-11T05:52:01;101179.88;;;30.55;100.00
6028;BME280;3042;43.194;27.646;2022-09-11T05:54:30;101173.44;;;30.62;100.00
6028;BME280;3042;43.194;27.646;2022-09-11T05:56:57;101183.44;;;30.25;100.00
6028;BME280;3042;43.194;27.646;2022-09-11T05:59:27;101183.97;;;30.38;100.00
6028;BME280;3042;43.194;27.646;2022-09-11T06:01:54;101180.75;;;30.27;100.00
6028;BME280;3042;43.194;27.646;2022-09-11T06:04:22;101184.34;;;30.26;100.00
6028;BME280;3042;43.194;27.646;2022-09-11T06:06:49;101169.78;;;30.36;100.00
6028;BME280;3042;43.194;27.646;2022-09-11T06:09:16;101163.44;;;30.40;100.00
6028;BME280;3042;43.194;27.646;2022-09-11T06:11:45;101161.78;;;30.36;100.00
6028;BME280;3042;43.194;27.646;2022-09-11T06:14:12;101177.47;;;30.17;100.00
6028;BME280;3042;43.194;27.646;2022-09-11T06:16:39;101166.28;;;30.34;100.00
6028;BME280;3042;43.194;27.646;2022-09-11T06:19:06;101164.56;;;30.33;100.00
6028;BME280;3042;43.194;27.646;2022-09-11T06:21:34;101164.75;;;30.27;100.00
6028;BME280;3042;43.194;27.646;2022-09-11T06:24:01;101165.53;;;30.31;100.00
6028;BME280;3042;43.194;27.646;2022-09-11T06:26:30;101174.53;;;30.26;100.00
6028;BME280;3042;43.194;27.646;2022-09-11T06:28:58;101174.56;;;30.55;100.00
6028;BME280;3042;43.194;27.646;2022-09-11T06:31:26;101176.22;;;30.59;100.00
6028;BME280;3042;43.194;27.646;2022-09-11T06:33:54;101177.56;;;30.72;100.00
6028;BME280;3042;43.194;27.646;2022-09-11T06:36:23;101168.31;;;30.82;100.00
6028;BME280;3042;43.194;27.646;2022-09-11T06:38:52;101179.47;;;30.95;100.00
6028;BME280;3042;43.194;27.646;2022-09-11T06:41:20;101178.56;;;30.68;100.00
6028;BME280;3042;43.194;27.646;2022-09-11T06:43:49;101177.03;;;30.61;100.00
6028;BME280;3042;43.194;27.646;2022-09-11T06:46:19;101168.88;;;30.94;100.00
6028;BME280;3042;43.194;27.646;2022-09-11T06:48:48;101168.72;;;30.98;100.00
6028;BME280;3042;43.194;27.646;2022-09-11T06:51:17;101161.84;;;31.16;100.00
6028;BME280;3042;43.194;27.646;2022-09-11T06:53:45;101173.91;;;31.03;100.00
6028;BME280;3042;43.194;27.646;2022-09-11T06:56:14;101167.25;;;30.88;100.00
6028;BME280;3042;43.194;27.646;2022-09-11T06:58:42;101176.88;;;30.94;100.00
6028;BME280;3042;43.194;27.646;2022-09-11T07:01:11;101172.22;;;31.00;100.00
6028;BME280;3042;43.194;27.646;2022-09-11T07:03:43;101172.66;;;31.13;100.00
6028;BME280;3042;43.194;27.646;2022-09-11T07:06:11;101178.59;;;30.95;100.00
6028;BME280;3042;43.194;27.646;2022-09-11T07:08:39;101175.50;;;30.80;100.00
6028;BME280;3042;43.194;27.646;2022-09-11T07:11:07;101171.81;;;31.11;100.00
6028;BME280;3042;43.194;27.646;2022-09-11T07:13:36;101173.66;;;31.09;100.00
6028;BME280;3042;43.194;27.646;2022-09-11T07:16:06;101177.41;;;31.05;100.00
6028;BME280;3042;43.194;27.646;2022-09-11T07:18:34;101056.03;;;30.07;100.00
6028;BME280;3042;43.194;27.646;2022-09-11T07:21:06;101171.00;;;31.09;100.00
6028;BME280;3042;43.194;27.646;2022-09-11T07:23:34;101174.81;;;31.02;100.00
6028;BME280;3042;43.194;27.646;2022-09-11T07:26:02;101183.03;;;30.96;100.00
6028;BME280;3042;43.194;27.646;2022-09-11T07:28:31;101141.53;;;30.59;100.00
6028;BME280;3042;43.194;27.646;2022-09-11T07:31:06;101130.88;;;30.85;100.00
6028;BME280;3042;43.194;27.646;2022-09-11T07:33:36;101067.44;;;30.40;100.00
6028;BME280;3042;43.194;27.646;2022-09-11T07:36:10;101110.31;;;30.89;100.00
6028;BME280;3042;43.194;27.646;2022-09-11T07:38:39;101181.06;;;31.27;100.00
6028;BME280;3042;43.194;27.646;2022-09-11T07:41:06;101192.47;;;31.06;100.00
6028;BME280;3042;43.194;27.646;2022-09-11T07:43:34;101188.34;;;31.22;100.00
6028;BME280;3042;43.194;27.646;2022-09-11T07:46:02;101188.69;;;31.38;100.00
6028;BME280;3042;43.194;27.646;2022-09-11T07:48:30;101082.44;;;30.98;100.00
6028;BME280;3042;43.194;27.646;2022-09-11T07:50:58;101121.97;;;31.11;100.00
6028;BME280;3042;43.194;27.646;2022-09-11T07:53:31;101168.97;;;31.67;100.00
6028;BME280;3042;43.194;27.646;2022-09-11T07:56:00;101167.72;;;31.78;100.00
6028;BME280;3042;43.194;27.646;2022-09-11T07:58:31;101176.97;;;31.67;100.00
6028;BME280;3042;43.194;27.646;2022-09-11T08:00:59;101142.13;;;31.20;100.00
6028;BME280;3042;43.194;27.646;2022-09-11T08:03:27;101181.22;;;31.49;100.00
6028;BME280;3042;43.194;27.646;2022-09-11T08:05:58;101166.97;;;31.72;100.00
6028;BME280;3042;43.194;27.646;2022-09-11T08:08:28;101115.66;;;31.14;100.00
6028;BME280;3042;43.194;27.646;2022-09-11T08:10:55;101163.75;;;31.64;100.00
6028;BME280;3042;43.194;27.646;2022-09-11T08:13:22;101185.91;;;31.43;100.00
6028;BME280;3042;43.194;27.646;2022-09-11T08:15:50;100990.41;;;30.31;100.00
6028;BME280;3042;43.194;27.646;2022-09-11T08:18:18;101172.25;;;31.75;100.00
6028;BME280;3042;43.194;27.646;2022-09-11T08:20:45;101157.63;;;31.36;100.00
6028;BME280;3042;43.194;27.646;2022-09-11T08:23:12;101179.56;;;31.70;100.00
6028;BME280;3042;43.194;27.646;2022-09-11T08:25:43;101135.00;;;31.71;100.00
6028;BME280;3042;43.194;27.646;2022-09-11T08:28:10;101169.66;;;31.72;100.00
6028;BME280;3042;43.194;27.646;2022-09-11T08:30:37;101169.09;;;31.88;100.00
6028;BME280;3042;43.194;27.646;2022-09-11T08:33:05;101158.28;;;32.14;100.00
6028;BME280;3042;43.194;27.646;2022-09-11T08:35:34;101148.50;;;32.37;100.00
6028;BME280;3042;43.194;27.646;2022-09-11T08:38:02;101145.09;;;32.55;100.00
6028;BME280;3042;43.194;27.646;2022-09-11T08:40:30;101137.78;;;32.37;100.00
6028;BME280;3042;43.194;27.646;2022-09-11T08:43:01;101134.94;;;32.64;100.00
6028;BME280;3042;43.194;27.646;2022-09-11T08:45:32;101137.19;;;32.74;100.00
6028;BME280;3042;43.194;27.646;2022-09-11T08:48:01;101128.09;;;32.56;100.00
6028;BME280;3042;43.194;27.646;2022-09-11T08:50:34;101021.50;;;32.03;100.00
6028;BME280;3042;43.194;27.646;2022-09-11T08:53:05;101012.84;;;31.95;100.00
6028;BME280;3042;43.194;27.646;2022-09-11T08:55:37;101129.59;;;32.64;100.00
6028;BME280;3042;43.194;27.646;2022-09-11T08:58:13;101123.03;;;32.71;100.00
6028;BME280;3042;43.194;27.646;2022-09-11T09:00:50;101121.94;;;32.54;100.00
6028;BME280;3042;43.194;27.646;2022-09-11T09:03:42;101107.94;;;32.70;100.00
6028;BME280;3042;43.194;27.646;2022-09-11T09:06:29;101106.78;;;32.75;100.00
6028;BME280;3042;43.194;27.646;2022-09-11T09:09:08;101113.03;;;32.54;100.00
6028;BME280;3042;43.194;27.646;2022-09-11T09:11:43;100945.47;;;31.87;100.00
6028;BME280;3042;43.194;27.646;2022-09-11T09:14:29;101098.34;;;33.07;100.00
6028;BME280;3042;43.194;27.646;2022-09-11T09:17:03;101090.22;;;33.08;100.00
6028;BME280;3042;43.194;27.646;2022-09-11T09:19:33;101067.78;;;32.90;99.50
6028;BME280;3042;43.194;27.646;2022-09-11T09:22:09;101083.38;;;33.21;99.42
6028;BME280;3042;43.194;27.646;2022-09-11T09:24:42;101040.47;;;33.03;96.29
6028;BME280;3042;43.194;27.646;2022-09-11T09:27:17;100955.16;;;32.74;95.22
6028;BME280;3042;43.194;27.646;2022-09-11T09:29:49;101079.81;;;33.41;92.87
6028;BME280;3042;43.194;27.646;2022-09-11T09:32:24;100977.16;;;32.81;92.18
6028;BME280;3042;43.194;27.646;2022-09-11T09:34:56;101094.69;;;33.28;91.92
6028;BME280;3042;43.194;27.646;2022-09-11T09:37:27;101081.97;;;33.52;90.23
6028;BME280;3042;43.194;27.646;2022-09-11T09:39:54;101090.53;;;33.41;87.17
6028;BME280;3042;43.194;27.646;2022-09-11T09:45:34;101087.50;;;33.49;84.55
6028;BME280;3042;43.194;27.646;2022-09-11T09:48:03;101092.13;;;33.46;84.42
6028;BME280;3042;43.194;27.646;2022-09-11T09:50:33;101081.38;;;33.66;84.54
6028;BME280;3042;43.194;27.646;2022-09-11T09:53:10;101087.50;;;33.49;84.81
6028;BME280;3042;43.194;27.646;2022-09-11T09:55:40;101042.84;;;33.29;89.36
6028;BME280;3042;43.194;27.646;2022-09-11T09:58:08;101084.38;;;33.39;88.44
6028;BME280;3042;43.194;27.646;2022-09-11T10:00:39;101066.03;;;33.70;85.42
6028;BME280;3042;43.194;27.646;2022-09-11T10:03:18;101068.41;;;33.76;84.33
6028;BME280;3042;43.194;27.646;2022-09-11T10:05:46;101059.50;;;33.75;82.93
6028;BME280;3042;43.194;27.646;2022-09-11T10:08:25;101051.16;;;34.00;80.27
6028;BME280;3042;43.194;27.646;2022-09-11T10:10:55;101049.78;;;33.92;80.21
6028;BME280;3042;43.194;27.646;2022-09-11T10:13:24;101051.59;;;34.10;80.43
6028;BME280;3042;43.194;27.646;2022-09-11T10:15:56;101038.19;;;34.28;80.24
6028;BME280;3042;43.194;27.646;2022-09-11T10:18:36;100910.91;;;33.62;78.31
6028;BME280;3042;43.194;27.646;2022-09-11T10:21:18;101045.59;;;34.22;76.77
6028;BME280;3042;43.194;27.646;2022-09-11T10:23:50;101036.75;;;34.20;75.82
6028;BME280;3042;43.194;27.646;2022-09-11T10:26:19;101040.84;;;34.10;74.98
6028;BME280;3042;43.194;27.646;2022-09-11T10:28:51;101042.88;;;34.05;74.41
6028;BME280;3042;43.194;27.646;2022-09-11T10:31:20;100905.53;;;33.43;74.27
6028;BME280;3042;43.194;27.646;2022-09-11T10:33:51;101042.31;;;33.79;72.87
6028;BME280;3042;43.194;27.646;2022-09-11T10:36:24;101036.06;;;33.98;73.07
6028;BME280;3042;43.194;27.646;2022-09-11T10:38:54;101026.34;;;34.14;71.67
6028;BME280;3042;43.194;27.646;2022-09-11T10:41:22;101017.53;;;34.30;72.86
6028;BME280;3042;43.194;27.646;2022-09-11T10:43:54;100963.69;;;34.15;72.34
6028;BME280;3042;43.194;27.646;2022-09-11T10:46:30;100975.72;;;34.25;71.27
6028;BME280;3042;43.194;27.646;2022-09-11T10:49:06;100920.25;;;33.90;70.47
6028;BME280;3042;43.194;27.646;2022-09-11T10:51:35;100975.72;;;34.25;69.12
6028;BME280;3042;43.194;27.646;2022-09-11T10:54:11;100987.91;;;34.48;70.27
6028;BME280;3042;43.194;27.646;2022-09-11T10:56:48;101000.97;;;34.56;70.70
6028;BME280;3042;43.194;27.646;2022-09-11T10:59:21;101005.53;;;34.37;71.13
6028;BME280;3042;43.194;27.646;2022-09-11T11:01:54;101000.03;;;34.40;71.10
6028;BME280;3042;43.194;27.646;2022-09-11T11:04:21;100957.69;;;34.10;71.93
6028;BME280;3042;43.194;27.646;2022-09-11T11:07:01;100986.88;;;34.86;70.36
6028;BME280;3042;43.194;27.646;2022-09-11T11:09:51;100984.53;;;34.62;64.83
6028;BME280;3042;43.194;27.646;2022-09-11T11:12:43;100952.16;;;34.48;65.07
6028;BME280;3042;43.194;27.646;2022-09-11T11:15:23;100977.84;;;34.71;66.20
6028;BME280;3042;43.194;27.646;2022-09-11T11:18:15;100931.59;;;34.31;67.53
6028;BME280;3042;43.194;27.646;2022-09-11T11:20:50;100986.75;;;34.54;70.07
6028;BME280;3042;43.194;27.646;2022-09-11T11:23:50;100884.94;;;34.34;67.63
6028;BME280;3042;43.194;27.646;2022-09-11T11:26:35;100973.00;;;34.60;66.39
6028;BME280;3042;43.194;27.646;2022-09-11T11:29:38;100979.06;;;34.81;66.86
6028;BME280;3042;43.194;27.646;2022-09-11T11:32:18;100975.81;;;34.92;68.21
6028;BME280;3042;43.194;27.646;2022-09-11T11:35:10;100974.66;;;34.63;68.32
6028;BME280;3042;43.194;27.646;2022-09-11T11:37:44;100904.78;;;33.95;69.52
6028;BME280;3042;43.194;27.646;2022-09-11T11:40:18;100976.97;;;34.71;69.74
6028;BME280;3042;43.194;27.646;2022-09-11T11:42:50;100968.44;;;34.80;68.20
6028;BME280;3042;43.194;27.646;2022-09-11T11:45:22;100963.44;;;34.72;66.87
6028;BME280;3042;43.194;27.646;2022-09-11T11:47:53;100970.19;;;34.97;68.18
6028;BME280;3042;43.194;27.646;2022-09-11T11:50:27;100863.59;;;34.65;67.81
6028;BME280;3042;43.194;27.646;2022-09-11T11:53:03;100952.34;;;35.29;68.00
6028;BME280;3042;43.194;27.646;2022-09-11T11:55:45;100943.81;;;35.21;66.69
6028;BME280;3042;43.194;27.646;2022-09-11T11:58:21;100899.88;;;34.73;66.10
6028;BME280;3042;43.194;27.646;2022-09-11T12:00:57;100952.59;;;34.91;67.62
6028;BME280;3042;43.194;27.646;2022-09-11T12:03:30;100952.25;;;34.97;67.63
6028;BME280;3042;43.194;27.646;2022-09-11T12:06:00;100947.22;;;34.91;65.63
6028;BME280;3042;43.194;27.646;2022-09-11T12:08:28;100951.69;;;34.75;65.94
6028;BME280;3042;43.194;27.646;2022-09-11T12:10:59;100935.75;;;35.21;66.54
6028;BME280;3042;43.194;27.646;2022-09-11T12:13:30;100936.38;;;35.26;65.84
6028;BME280;3042;43.194;27.646;2022-09-11T12:16:06;100834.91;;;34.66;65.99
6028;BME280;3042;43.194;27.646;2022-09-11T12:18:35;100882.41;;;34.31;62.48
6028;BME280;3042;43.194;27.646;2022-09-11T12:21:36;100911.91;;;35.46;61.12
6028;BME280;3042;43.194;27.646;2022-09-11T12:24:19;100915.22;;;35.67;62.46
6028;BME280;3042;43.194;27.646;2022-09-11T12:26:46;100927.28;;;35.13;62.11
6028;BME280;3042;43.194;27.646;2022-09-11T12:32:40;100914.69;;;35.45;59.59
6028;BME280;3042;43.194;27.646;2022-09-11T12:35:15;100916.06;;;35.68;60.43
6028;BME280;3042;43.194;27.646;2022-09-11T12:37:50;100923.03;;;35.24;62.24
6028;BME280;3042;43.194;27.646;2022-09-11T12:40:23;100776.19;;;34.76;59.69
6028;BME280;3042;43.194;27.646;2022-09-11T12:43:12;100900.91;;;35.67;59.43
6028;BME280;3042;43.194;27.646;2022-09-11T12:45:43;100880.38;;;36.55;58.59
6028;BME280;3042;43.194;27.646;2022-09-11T12:48:15;100812.19;;;35.51;58.78
6028;BME280;3042;43.194;27.646;2022-09-11T12:50:48;100869.13;;;36.04;58.76
6028;BME280;3042;43.194;27.646;2022-09-11T12:53:23;100852.97;;;35.43;58.76
6028;BME280;3042;43.194;27.646;2022-09-11T12:55:57;100894.75;;;35.65;59.53
6028;BME280;3042;43.194;27.646;2022-09-11T12:58:28;100895.72;;;35.64;59.66
6028;BME280;3042;43.194;27.646;2022-09-11T13:01:12;100893.34;;;35.74;59.55
6028;BME280;3042;43.194;27.646;2022-09-11T13:03:48;100874.09;;;35.96;59.81
6028;BME280;3042;43.194;27.646;2022-09-11T13:06:18;100896.41;;;35.36;58.72
6028;BME280;3042;43.194;27.646;2022-09-11T13:08:49;100877.41;;;35.55;58.29
6028;BME280;3042;43.194;27.646;2022-09-11T13:11:38;100870.53;;;35.81;57.77
6028;BME280;3042;43.194;27.646;2022-09-11T13:17:13;100871.28;;;35.83;59.28
6028;BME280;3042;43.194;27.646;2022-09-11T13:19:41;100889.72;;;35.11;58.33
6028;BME280;3042;43.194;27.646;2022-09-11T13:22:22;100872.09;;;35.69;59.17
6028;BME280;3042;43.194;27.646;2022-09-11T13:25:04;100881.13;;;35.52;60.76
6028;BME280;3042;43.194;27.646;2022-09-11T13:27:33;100892.25;;;35.30;61.49